Majenica, Indiana
Current Conditions -  °F | °C
As of 6:15 PM on Wednesday 22 Oct 2014 (Local Time) from KHHG Reporting Station
Clear Clear  
Wind Chill: 50°   Ceiling: Unl
Heat Index: 50°   Visibility: 10mi
Dew Point: 40°   Wind: 5mph
Humidity: 68%   Direction: 80°E
Pressure: 30.28"   Gusts: NA
Location:  40.9238°N, 85.5001°W
Report Text: KHHG 222215Z AUTO 08004KT 10SM CLR 10/05 A3028 RMK AO2 T01020045
Loading
Personal Weather Stations






























Interactive Weather Map
Tropical Storm Tracking
New forecast layout! Learn more

10-Day Weather Forecast

Advertisements
Track Severe Weather on mobile